Time;durP1;ratioP1;P1;durP2;ratioP2;P2;SDS_P1;SDS_P2;PMS_P1;PMS_P2;Temp;Humidity;BMP_temperature;BMP_pressure;BME280_temperature;BME280_humidity;BME280_pressure;Samples;Min_cycle;Max_cycle;Signal;HPM_P1;HPM_P2
2022/05/16 00:00:14;;;;;;;;;1.67;1.67;;;;;21.41;46.19;98804.63;4855464;28;102487;-82
2022/05/16 00:02:42;;;;;;;;;1.33;1.33;;;;;21.41;46.22;98796.38;4852037;28;102721;-82
2022/05/16 00:05:09;;;;;;;;;3.67;2.00;;;;;21.39;46.32;98802.13;4833538;28;104128;-83
2022/05/16 00:07:36;;;;;;;;;2.67;2.33;;;;;21.35;46.80;98799.09;4823471;28;102750;-82
2022/05/16 00:10:04;;;;;;;;;1.67;1.67;;;;;21.37;46.43;98798.81;4818710;28;102309;-82
2022/05/16 00:12:31;;;;;;;;;3.67;3.00;;;;;21.38;46.68;98802.41;4860486;28;102372;-81
2022/05/16 00:14:58;;;;;;;;;1.67;1.67;;;;;21.36;46.10;98800.75;4859926;28;104091;-83
2022/05/16 00:17:26;;;;;;;;;1.00;1.00;;;;;21.36;46.01;98802.66;4861974;28;102456;-83
2022/05/16 00:19:53;;;;;;;;;2.00;2.00;;;;;21.38;46.60;98799.66;4858907;28;102176;-82
2022/05/16 00:22:20;;;;;;;;;1.67;1.33;;;;;21.37;46.21;98796.06;4859277;28;102433;-83
2022/05/16 00:24:50;;;;;;;;;2.33;2.33;;;;;21.35;46.26;98793.56;4861340;28;104132;-83
2022/05/16 00:27:17;;;;;;;;;3.00;2.00;;;;;21.34;46.13;98791.91;4857403;28;102367;-83
2022/05/16 00:29:44;;;;;;;;;3.00;2.33;;;;;21.33;46.54;98795.78;4859561;28;102047;-82
2022/05/16 00:32:13;;;;;;;;;1.67;1.67;;;;;21.31;46.08;98792.47;4859361;28;104279;-83
2022/05/16 00:34:40;;;;;;;;;1.00;1.00;;;;;21.32;46.05;98802.38;4853574;28;103101;-83
2022/05/16 00:37:07;;;;;;;;;2.00;1.67;;;;;21.31;46.12;98797.97;4852647;28;102263;-83
2022/05/16 00:39:35;;;;;;;;;2.67;2.33;;;;;21.30;46.65;98796.28;4852433;28;102402;-82
2022/05/16 00:42:02;;;;;;;;;2.00;2.00;;;;;21.30;46.25;98799.03;4859856;28;104092;-82
2022/05/16 00:44:30;;;;;;;;;2.00;2.00;;;;;21.31;46.26;98813.63;4853052;28;109095;-83
2022/05/16 00:46:57;;;;;;;;;2.67;2.00;;;;;21.30;46.34;98807.31;4836527;28;102569;-83
2022/05/16 00:49:28;;;;;;;;;1.00;1.00;;;;;21.29;46.27;98802.91;4856193;28;102641;-83
2022/05/16 00:52:09;;;;;;;;;2.33;2.33;;;;;21.30;46.32;98814.72;4837206;28;102868;-83
2022/05/16 00:54:41;;;;;;;;;3.00;2.00;;;;;21.28;46.32;98806.75;4841195;28;108820;-82
2022/05/16 00:57:14;;;;;;;;;2.00;1.67;;;;;21.28;46.79;98819.69;4829876;28;102315;-82
2022/05/16 00:59:44;;;;;;;;;3.33;2.67;;;;;21.27;46.84;98812.50;4812768;28;102428;-83
2022/05/16 01:04:57;;;;;;;;;3.00;2.67;;;;;21.25;46.35;98815.50;4822121;28;104524;-83
2022/05/16 01:07:32;;;;;;;;;3.00;2.00;;;;;21.23;46.01;98817.72;4842486;28;102444;-83
2022/05/16 01:09:59;;;;;;;;;1.67;1.67;;;;;21.20;46.53;98814.66;4822876;28;104229;-83
2022/05/16 01:12:32;;;;;;;;;2.00;2.00;;;;;21.22;46.09;98818.81;4818573;28;102480;-82
2022/05/16 01:15:00;;;;;;;;;1.67;1.67;;;;;21.22;46.14;98809.72;4814885;28;105421;-83
2022/05/16 01:17:27;;;;;;;;;2.67;2.00;;;;;21.22;45.95;98818.81;4837351;28;102352;-83
2022/05/16 01:19:54;;;;;;;;;2.67;2.67;;;;;21.21;46.45;98819.88;4856473;28;102227;-83
2022/05/16 01:22:42;;;;;;;;;2.00;2.00;;;;;21.21;46.50;98819.88;4839368;28;102606;-83
2022/05/16 01:25:23;;;;;;;;;2.67;1.67;;;;;21.21;46.47;98819.88;4849291;28;109900;-83
2022/05/16 01:27:58;;;;;;;;;2.67;2.00;;;;;21.20;46.20;98815.50;4855283;28;102980;-83
2022/05/16 01:30:28;;;;;;;;;2.67;2.00;;;;;21.19;46.49;98819.34;4849320;28;102300;-83
2022/05/16 01:32:55;;;;;;;;;2.33;1.67;;;;;21.17;46.35;98804.19;4849145;28;102272;-82
2022/05/16 01:35:25;;;;;;;;;3.00;3.00;;;;;21.16;46.07;98803.38;4847863;28;103597;-83
2022/05/16 01:40:38;;;;;;;;;2.00;2.00;;;;;21.15;45.97;98798.97;4847967;28;102248;-82
2022/05/16 01:43:06;;;;;;;;;1.67;1.33;;;;;21.15;46.20;98798.97;4859268;28;102376;-83
2022/05/16 01:45:33;;;;;;;;;3.00;2.67;;;;;21.13;46.37;98790.13;4850753;28;108984;-83
2022/05/16 01:48:00;;;;;;;;;3.00;2.67;;;;;21.13;46.21;98795.63;4844347;28;102289;-83
2022/05/16 01:50:27;;;;;;;;;2.00;2.00;;;;;21.14;46.28;98796.47;4850416;28;102268;-83
2022/05/16 01:52:54;;;;;;;;;3.00;2.00;;;;;21.14;46.30;98797.31;4858093;28;102110;-83
2022/05/16 01:55:21;;;;;;;;;2.67;2.67;;;;;21.13;45.61;98790.13;4858044;28;105790;-83
2022/05/16 01:57:49;;;;;;;;;4.00;3.00;;;;;21.13;46.27;98795.63;4857640;28;102183;-83
2022/05/16 02:00:16;;;;;;;;;2.33;2.00;;;;;21.12;45.77;98793.94;4855274;28;102600;-83
2022/05/16 02:02:44;;;;;;;;;2.67;2.67;;;;;21.11;45.82;98796.97;4863512;28;102290;-82
2022/05/16 02:05:16;;;;;;;;;5.67;2.67;;;;;21.09;46.05;98799.16;4854334;28;104026;-83
2022/05/16 02:07:45;;;;;;;;;3.00;2.33;;;;;21.08;46.18;98792.81;4858601;28;102843;-83
2022/05/16 02:10:13;;;;;;;;;3.00;2.67;;;;;21.08;45.83;98803.81;4856554;28;104829;-83
2022/05/16 02:12:40;;;;;;;;;2.33;2.00;;;;;21.08;45.82;98803.81;4862824;28;103570;-82
2022/05/16 02:15:08;;;;;;;;;3.00;2.00;;;;;21.07;46.29;98796.69;4857912;28;104044;-82
2022/05/16 02:17:35;;;;;;;;;2.67;1.67;;;;;21.08;46.39;98797.47;4863391;28;102879;-83
2022/05/16 02:20:03;;;;;;;;;2.33;1.67;;;;;21.05;45.73;98801.59;4858954;28;102706;-83
2022/05/16 02:25:37;;;;;;;;;3.67;2.67;;;;;21.06;45.91;98814.25;4846630;28;108934;-83
2022/05/16 02:28:05;;;;;;;;;3.00;2.33;;;;;21.04;46.06;98799.94;4851245;28;102952;-83
2022/05/16 02:30:32;;;;;;;;;3.67;3.67;;;;;21.04;45.88;98807.34;4836177;28;102148;-83
2022/05/16 02:32:59;;;;;;;;;2.67;2.67;;;;;21.03;45.87;98816.72;4860917;28;102399;-83
2022/05/16 02:35:26;;;;;;;;;3.67;3.00;;;;;21.01;46.34;98819.72;4857656;28;104076;-83
2022/05/16 02:37:58;;;;;;;;;3.00;3.00;;;;;20.99;45.78;98821.06;4849804;28;103546;-83
2022/05/16 02:40:26;;;;;;;;;0.00;0.00;;;;;20.99;45.87;98827.41;4852886;28;102184;-83
2022/05/16 02:42:53;;;;;;;;;3.00;3.00;;;;;20.99;45.70;98832.88;4860195;28;102192;-83
2022/05/16 02:45:20;;;;;;;;;2.33;2.00;;;;;20.98;46.32;98820.25;4853854;28;104407;-83
2022/05/16 02:47:47;;;;;;;;;3.33;3.00;;;;;20.99;45.75;98816.41;4860029;28;108547;-83
2022/05/16 02:50:15;;;;;;;;;2.00;2.00;;;;;20.98;46.15;98820.25;4861308;28;103597;-83
2022/05/16 02:52:42;;;;;;;;;3.00;3.00;;;;;20.98;45.82;98814.75;4855752;28;102487;-83
2022/05/16 02:55:09;;;;;;;;;4.00;3.67;;;;;20.98;45.79;98817.50;4858709;28;104092;-82
2022/05/16 02:57:36;;;;;;;;;2.67;2.67;;;;;20.96;45.76;98822.44;4864036;28;102350;-83
2022/05/16 03:00:05;;;;;;;;;4.00;3.33;;;;;20.95;46.04;98826.25;4860028;28;102334;-83
2022/05/16 03:02:32;;;;;;;;;3.00;3.00;;;;;20.94;46.08;98819.09;4856742;28;102473;-83
2022/05/16 03:04:59;;;;;;;;;5.00;4.00;;;;;20.94;46.18;98825.44;4857950;28;104066;-83
2022/05/16 03:07:27;;;;;;;;;2.67;2.00;;;;;20.91;45.80;98819.63;4856821;28;101992;-83
2022/05/16 03:09:53;;;;;;;;;4.67;4.00;;;;;20.89;46.13;98830.09;4854466;28;102374;-83
2022/05/16 03:12:20;;;;;;;;;2.67;2.00;;;;;20.91;45.79;98836.13;4856274;28;103931;-83
2022/05/16 03:14:47;;;;;;;;;3.67;2.67;;;;;20.90;45.87;98828.97;4851094;28;104356;-83
2022/05/16 03:17:14;;;;;;;;;3.67;2.33;;;;;20.90;46.21;98828.97;4853993;28;102377;-83
2022/05/16 03:19:42;;;;;;;;;3.33;2.67;;;;;20.91;45.60;98833.38;4854726;28;102670;-82
2022/05/16 03:22:09;;;;;;;;;3.00;2.67;;;;;20.90;45.53;98823.47;4854151;28;102328;-82
2022/05/16 03:24:36;;;;;;;;;2.00;2.00;;;;;20.89;45.48;98824.59;4865481;28;104233;-83
2022/05/16 03:27:05;;;;;;;;;3.00;3.00;;;;;20.90;45.56;98834.47;4856324;28;102567;-83
2022/05/16 03:29:32;;;;;;;;;3.67;3.67;;;;;20.88;45.61;98826.50;4856844;28;102164;-83
2022/05/16 03:31:59;;;;;;;;;4.00;2.33;;;;;20.87;45.78;98829.50;4857998;28;102251;-83
2022/05/16 03:34:26;;;;;;;;;5.00;3.67;;;;;20.87;45.66;98826.75;4858359;28;104450;-83
2022/05/16 03:36:53;;;;;;;;;3.67;2.67;;;;;20.86;46.21;98831.41;4853726;28;102618;-83
2022/05/16 03:42:07;;;;;;;;;2.33;2.33;;;;;20.85;45.84;98839.91;4848724;28;102603;-83
2022/05/16 03:44:34;;;;;;;;;3.00;2.67;;;;;20.85;45.68;98837.16;4841751;28;108795;-83
2022/05/16 03:47:02;;;;;;;;;4.00;3.00;;;;;20.84;45.70;98832.78;4852804;28;102268;-83
2022/05/16 03:49:30;;;;;;;;;4.00;2.67;;;;;20.85;45.45;98843.50;4861272;28;102090;-83
2022/05/16 03:51:59;;;;;;;;;2.67;2.33;;;;;20.84;45.89;98835.53;4861717;28;102180;-84
2022/05/16 03:54:26;;;;;;;;;4.00;3.00;;;;;20.85;45.88;98842.66;4860080;28;105901;-83
2022/05/16 03:56:53;;;;;;;;;2.33;2.33;;;;;20.84;45.86;98841.03;4859516;28;102183;-83
2022/05/16 03:59:20;;;;;;;;;4.00;3.00;;;;;20.84;45.44;98832.78;4860345;28;103240;-83
2022/05/16 04:01:49;;;;;;;;;2.00;2.00;;;;;20.82;45.42;98833.03;4858432;28;102430;-83
2022/05/16 04:04:16;;;;;;;;;4.00;4.00;;;;;20.81;45.63;98836.03;4855478;28;104433;-83
2022/05/16 04:06:43;;;;;;;;;3.00;3.00;;;;;20.80;45.77;98839.91;4859091;28;103568;-83
2022/05/16 04:09:10;;;;;;;;;3.00;3.00;;;;;20.79;45.33;98827.22;4858539;28;102692;-82
2022/05/16 04:11:37;;;;;;;;;4.00;3.00;;;;;20.78;45.42;98839.31;4864864;28;102256;-83
2022/05/16 04:14:04;;;;;;;;;2.33;2.33;;;;;20.77;45.37;98846.72;4856946;28;108887;-83
2022/05/16 04:16:31;;;;;;;;;2.00;1.67;;;;;20.78;45.36;98845.66;4853815;28;102552;-83
2022/05/16 04:18:58;;;;;;;;;3.00;3.00;;;;;20.77;45.31;98840.41;4859790;28;102841;-83
2022/05/16 04:21:25;;;;;;;;;3.33;3.00;;;;;20.79;45.19;98846.47;4858177;28;103070;-83
2022/05/16 04:23:52;;;;;;;;;4.67;3.67;;;;;20.79;45.53;98844.56;4843788;28;104072;-83
2022/05/16 04:26:19;;;;;;;;;4.00;4.00;;;;;20.79;45.48;98849.22;4853431;28;102358;-83
2022/05/16 04:28:46;;;;;;;;;3.33;3.00;;;;;20.78;45.03;98850.31;4861047;28;102214;-83
2022/05/16 04:31:13;;;;;;;;;4.67;3.00;;;;;20.79;44.99;98843.72;4863133;28;102596;-83
2022/05/16 04:33:40;;;;;;;;;3.00;3.00;;;;;20.78;45.33;98842.06;4853454;28;104057;-82
2022/05/16 04:36:07;;;;;;;;;4.67;3.33;;;;;20.77;44.92;98845.91;4860054;28;102769;-83
2022/05/16 04:38:34;;;;;;;;;2.00;2.00;;;;;20.77;45.36;98845.91;4859507;28;103860;-83
2022/05/16 04:43:47;;;;;;;;;3.67;2.00;;;;;20.75;45.00;98848.94;4854669;28;108818;-83
2022/05/16 04:46:14;;;;;;;;;3.33;2.67;;;;;20.75;45.39;98846.19;4860602;28;102169;-83
2022/05/16 04:48:41;;;;;;;;;3.00;3.00;;;;;20.76;45.57;98841.47;4857712;28;102269;-83
2022/05/16 04:51:08;;;;;;;;;3.00;3.00;;;;;20.75;45.41;98842.59;4862542;28;102296;-83
2022/05/16 04:53:35;;;;;;;;;3.00;3.00;;;;;20.76;45.47;98838.72;4856564;28;109016;-83
2022/05/16 04:56:02;;;;;;;;;2.67;2.67;;;;;20.78;45.02;98842.06;4857334;28;102625;-84
2022/05/16 04:58:29;;;;;;;;;3.33;2.67;;;;;20.78;45.40;98844.81;4858103;28;102594;-83
2022/05/16 05:00:56;;;;;;;;;3.00;3.00;;;;;20.78;45.38;98839.31;4858955;28;102256;-83
2022/05/16 05:03:23;;;;;;;;;3.00;3.00;;;;;20.78;45.36;98839.31;4856518;28;104175;-83
2022/05/16 05:05:50;;;;;;;;;3.67;3.00;;;;;20.77;45.04;98843.16;4857382;28;103581;-83
2022/05/16 05:08:17;;;;;;;;;3.67;3.00;;;;;20.77;44.97;98845.91;4841971;28;103867;-83
2022/05/16 05:16:19;;;;;;;;;3.00;3.00;;;;;20.76;45.11;98838.72;4822363;28;102391;-83
2022/05/16 05:18:46;;;;;;;;;4.00;4.00;;;;;20.76;45.39;98836.81;4847613;28;102549;-83
2022/05/16 05:21:13;;;;;;;;;4.00;2.67;;;;;20.77;45.31;98837.66;4857459;28;102408;-84
2022/05/16 05:23:40;;;;;;;;;6.00;4.00;;;;;20.77;45.44;98841.22;4860930;28;104827;-83
2022/05/16 05:26:08;;;;;;;;;3.33;2.00;;;;;20.79;44.75;98844.56;4863653;28;102048;-83
2022/05/16 05:28:35;;;;;;;;;3.67;2.67;;;;;20.79;45.13;98847.31;4838333;28;102510;-84
2022/05/16 05:31:02;;;;;;;;;7.00;4.00;;;;;20.79;44.74;98849.22;4861112;28;102232;-83
2022/05/16 05:33:29;;;;;;;;;2.00;2.00;;;;;20.80;45.26;98842.66;4857010;28;104129;-83
2022/05/16 05:35:56;;;;;;;;;2.33;2.33;;;;;20.79;44.79;98850.06;4859913;28;102538;-83
2022/05/16 05:38:24;;;;;;;;;3.33;3.33;;;;;20.79;45.09;98846.47;4861266;28;102473;-84
2022/05/16 05:40:51;;;;;;;;;1.33;1.33;;;;;20.80;45.16;98851.69;4862820;28;102947;-84
2022/05/16 05:43:18;;;;;;;;;3.67;3.00;;;;;20.79;44.96;98849.22;4861922;28;104077;-83
2022/05/16 05:45:45;;;;;;;;;2.67;2.67;;;;;20.80;44.90;98845.41;4863017;28;102188;-83
2022/05/16 05:48:12;;;;;;;;;3.00;2.67;;;;;20.80;44.95;98843.44;4861812;28;102395;-83
2022/05/16 05:50:39;;;;;;;;;2.67;2.00;;;;;20.81;45.02;98855.28;4862109;28;102032;-84
2022/05/16 05:53:06;;;;;;;;;3.67;3.33;;;;;20.81;44.68;98847.84;4851156;28;109723;-84
2022/05/16 05:55:40;;;;;;;;;3.00;3.00;;;;;20.83;44.61;98851.19;4860773;28;104123;-83
2022/05/16 05:58:08;;;;;;;;;2.00;2.00;;;;;20.84;44.90;98852.03;4851923;28;102280;-83
2022/05/16 06:00:35;;;;;;;;;2.67;2.67;;;;;20.84;44.57;98849.28;4853766;28;102535;-84
2022/05/16 06:03:01;;;;;;;;;4.00;3.00;;;;;20.84;45.05;98854.78;4854042;28;104115;-83
2022/05/16 06:05:28;;;;;;;;;4.00;3.67;;;;;20.85;44.99;98851.75;4858280;28;102152;-83
2022/05/16 06:07:55;;;;;;;;;3.00;2.00;;;;;20.85;44.65;98853.66;4862512;28;102289;-83
2022/05/16 06:10:22;;;;;;;;;2.67;2.67;;;;;20.83;44.93;98856.69;4861684;28;102590;-84
2022/05/16 06:12:49;;;;;;;;;2.33;2.33;;;;;20.84;44.57;98857.53;4856501;28;104148;-83
2022/05/16 06:15:16;;;;;;;;;3.00;3.00;;;;;20.84;44.97;98852.03;4855316;28;102346;-83
2022/05/16 06:17:44;;;;;;;;;4.00;4.00;;;;;20.83;44.58;98851.19;4858747;28;102533;-83
2022/05/16 06:20:12;;;;;;;;;5.00;3.00;;;;;20.85;44.44;98842.66;4855658;28;102232;-83
2022/05/16 06:22:39;;;;;;;;;2.67;2.67;;;;;20.85;44.48;98839.91;4858825;28;104104;-83
2022/05/16 06:28:02;;;;;;;;;3.00;2.67;;;;;20.86;44.65;98841.56;4855317;28;102499;-83
2022/05/16 06:30:30;;;;;;;;;5.00;2.67;;;;;20.86;44.69;98839.66;4859520;28;103158;-83
2022/05/16 06:32:57;;;;;;;;;2.67;2.67;;;;;20.87;44.50;98835.00;4853602;28;104063;-83
2022/05/16 06:35:24;;;;;;;;;2.67;2.67;;;;;20.86;44.43;98841.56;4853553;28;102273;-83
2022/05/16 06:37:51;;;;;;;;;3.67;3.67;;;;;20.85;44.97;98843.50;4855253;28;102501;-83
2022/05/16 06:40:19;;;;;;;;;4.00;3.00;;;;;20.87;44.55;98843.25;4837084;28;102370;-84
2022/05/16 06:42:46;;;;;;;;;2.00;2.00;;;;;20.85;44.64;98839.91;4855118;28;103990;-83
2022/05/16 06:45:13;;;;;;;;;4.00;3.67;;;;;20.86;44.37;98838.84;4850993;28;102126;-83
2022/05/16 06:47:41;;;;;;;;;3.00;2.33;;;;;20.85;44.57;98834.41;4862872;28;102581;-83
2022/05/16 06:50:08;;;;;;;;;3.00;3.00;;;;;20.83;45.10;98834.69;4861144;28;102420;-83
2022/05/16 06:52:35;;;;;;;;;2.67;2.67;;;;;20.83;44.72;98851.19;4857679;28;104352;-83
2022/05/16 06:55:03;;;;;;;;;5.00;4.00;;;;;20.83;45.28;98853.09;4855271;28;104302;-84
2022/05/16 06:57:30;;;;;;;;;2.67;2.67;;;;;20.83;44.99;98853.09;4857298;28;102177;-84
2022/05/16 06:59:59;;;;;;;;;3.33;3.00;;;;;20.83;44.70;98850.34;4860918;28;102248;-83
2022/05/16 07:02:26;;;;;;;;;3.00;3.00;;;;;20.84;44.79;98849.28;4853473;28;104292;-83
2022/05/16 07:04:53;;;;;;;;;3.00;3.00;;;;;20.82;44.83;98846.78;4859313;28;102231;-83
2022/05/16 07:07:20;;;;;;;;;3.67;2.67;;;;;20.83;45.02;98851.19;4849627;28;102282;-83
2022/05/16 07:09:47;;;;;;;;;3.67;3.67;;;;;20.82;44.67;98849.53;4852152;28;102456;-83
2022/05/16 07:12:14;;;;;;;;;3.00;3.00;;;;;20.83;44.65;98847.59;4853955;28;104096;-82
2022/05/16 07:14:41;;;;;;;;;2.00;2.00;;;;;20.85;44.58;98850.91;4862831;28;102317;-83
2022/05/16 07:17:08;;;;;;;;;5.00;4.00;;;;;20.83;44.89;98853.94;4860454;28;102235;-83
2022/05/16 07:19:36;;;;;;;;;3.00;3.00;;;;;20.84;44.71;98839.13;4860883;28;102490;-83
2022/05/16 07:22:10;;;;;;;;;4.33;3.00;;;;;20.86;44.83;98856.16;4858889;28;104348;-83
2022/05/16 07:24:41;;;;;;;;;3.00;3.00;;;;;20.87;44.85;98846.81;4837594;28;102035;-83
2022/05/16 07:29:54;;;;;;;;;4.00;4.00;;;;;20.86;44.67;98850.66;4855341;28;102272;-82
2022/05/16 07:32:21;;;;;;;;;3.00;3.00;;;;;20.88;44.88;98847.66;4858932;28;104439;-83
2022/05/16 07:34:48;;;;;;;;;5.33;3.33;;;;;20.89;44.82;98849.31;4859263;28;102472;-82
2022/05/16 07:37:15;;;;;;;;;3.00;3.00;;;;;20.89;44.95;98849.31;4857974;28;102386;-82
2022/05/16 07:39:42;;;;;;;;;4.00;4.00;;;;;20.88;45.13;98847.66;4861352;28;110424;-81
2022/05/16 07:42:09;;;;;;;;;3.00;3.00;;;;;20.89;44.59;98854.81;4863001;28;104110;-83
2022/05/16 07:44:37;;;;;;;;;2.00;2.00;;;;;20.89;44.77;98846.56;4860596;28;102494;-82
2022/05/16 07:47:04;;;;;;;;;3.67;3.33;;;;;20.89;44.71;98854.81;4861894;28;102738;-83
2022/05/16 07:49:31;;;;;;;;;4.67;3.00;;;;;20.90;44.99;98861.94;4860281;28;102412;-82
2022/05/16 07:51:58;;;;;;;;;4.00;1.67;;;;;20.89;44.43;98849.31;4859990;28;103866;-82
2022/05/16 07:54:25;;;;;;;;;2.67;2.00;;;;;20.90;44.60;98856.47;4852824;28;102236;-83
2022/05/16 07:56:52;;;;;;;;;3.00;3.00;;;;;20.90;44.52;98860.03;4857807;28;103013;-83
2022/05/16 07:59:19;;;;;;;;;2.67;2.67;;;;;20.90;44.71;98860.03;4859542;28;102473;-83
2022/05/16 08:01:46;;;;;;;;;2.67;2.67;;;;;20.90;44.99;98860.03;4860323;28;104089;-83
2022/05/16 08:04:14;;;;;;;;;3.00;3.00;;;;;20.90;44.84;98849.03;4857955;28;102325;-82
2022/05/16 08:06:41;;;;;;;;;4.33;4.00;;;;;20.91;44.79;98849.88;4859800;28;102741;-83
2022/05/16 08:11:53;;;;;;;;;3.00;3.00;;;;;20.90;44.93;98834.47;4854759;28;108871;-83
2022/05/16 08:14:21;;;;;;;;;2.67;2.67;;;;;20.91;44.58;98836.13;4858496;28;102357;-83
2022/05/16 08:16:48;;;;;;;;;2.67;2.67;;;;;20.91;44.49;98831.47;4860021;28;102152;-83
2022/05/16 08:19:16;;;;;;;;;2.00;2.00;;;;;20.93;44.59;98839.47;4860147;28;102658;-82
2022/05/16 08:21:43;;;;;;;;;4.33;3.00;;;;;20.95;44.79;98842.75;4859737;28;104179;-83
2022/05/16 08:24:11;;;;;;;;;3.00;3.00;;;;;20.96;44.72;98844.41;4860622;28;102424;-83
2022/05/16 08:26:38;;;;;;;;;2.67;2.67;;;;;20.98;44.39;98842.25;4857360;28;103381;-83
2022/05/16 08:29:05;;;;;;;;;3.67;2.67;;;;;20.98;44.35;98839.50;4861657;28;102455;-83
2022/05/16 08:31:33;;;;;;;;;4.33;3.67;;;;;20.98;44.73;98825.75;4863886;28;104323;-83
2022/05/16 08:34:00;;;;;;;;;2.00;2.00;;;;;21.00;44.37;98839.22;4857855;28;102363;-83
2022/05/16 08:42:02;;;;;;;;;2.67;2.67;;;;;21.02;44.94;98826.88;4855316;28;104114;-83
2022/05/16 08:44:51;;;;;;;;;4.00;3.00;;;;;21.02;44.40;98831.56;4861193;28;102110;-83
2022/05/16 08:47:45;;;;;;;;;1.67;1.67;;;;;21.01;44.53;98832.63;4840618;28;102425;-83
2022/05/16 08:50:18;;;;;;;;;3.00;3.00;;;;;21.02;44.38;98837.06;4853441;28;102147;-83
2022/05/16 08:52:59;;;;;;;;;3.00;3.00;;;;;21.03;44.93;98836.78;4825208;28;108806;-82
2022/05/16 08:55:43;;;;;;;;;3.33;3.00;;;;;21.02;44.52;98824.13;4816320;28;102971;-83
2022/05/16 08:58:26;;;;;;;;;2.00;2.00;;;;;21.03;44.98;98827.72;4830601;28;102299;-83
2022/05/16 09:01:13;;;;;;;;;3.67;2.67;;;;;21.02;44.56;98826.88;4828353;28;102241;-83
2022/05/16 09:04:10;;;;;;;;;3.00;2.00;;;;;21.03;44.43;98816.72;4842456;28;108941;-83
2022/05/16 09:06:56;;;;;;;;;4.00;4.00;;;;;21.03;44.66;98820.28;4854375;28;102754;-83
2022/05/16 09:09:27;;;;;;;;;2.67;2.67;;;;;21.03;44.65;98825.78;4853651;28;102407;-83
2022/05/16 09:12:36;;;;;;;;;2.67;2.00;;;;;21.04;44.67;98824.69;4825849;28;102198;-82
2022/05/16 09:15:25;;;;;;;;;3.00;2.33;;;;;21.04;44.58;98821.94;4828560;28;108906;-83
2022/05/16 09:18:05;;;;;;;;;1.33;1.33;;;;;21.04;45.13;98821.94;4854419;28;102110;-83
2022/05/16 09:21:05;;;;;;;;;3.67;2.67;;;;;21.04;44.81;98819.19;4856811;28;102465;-83
2022/05/16 09:23:54;;;;;;;;;1.00;1.00;;;;;21.07;45.16;98815.94;4854325;28;102423;-83
2022/05/16 09:26:21;;;;;;;;;3.00;2.67;;;;;21.06;45.07;98814.25;4850304;28;108601;-83
2022/05/16 09:28:51;;;;;;;;;2.67;2.00;;;;;21.07;44.73;98817.84;4858242;28;102349;-82
2022/05/16 09:31:39;;;;;;;;;2.67;2.67;;;;;21.07;44.70;98810.44;4841738;28;102854;-83
2022/05/16 09:34:09;;;;;;;;;2.33;2.33;;;;;21.07;44.98;98802.19;4855913;28;102564;-83
2022/05/16 09:36:41;;;;;;;;;2.00;1.67;;;;;21.08;44.74;98812.06;4861091;28;104137;-83
2022/05/16 09:39:09;;;;;;;;;2.00;2.00;;;;;21.09;44.58;98812.91;4860120;28;102709;-83
2022/05/16 09:41:44;;;;;;;;;3.00;2.33;;;;;21.09;44.84;98810.97;4861611;28;102359;-83
2022/05/16 09:44:29;;;;;;;;;2.00;2.00;;;;;21.08;44.78;98814.81;4862236;28;102165;-83
2022/05/16 09:47:16;;;;;;;;;3.00;2.00;;;;;21.10;45.26;98812.66;4862841;28;108969;-83
2022/05/16 09:49:43;;;;;;;;;1.00;1.00;;;;;21.09;44.71;98816.47;4859268;28;105295;-83
2022/05/16 09:52:20;;;;;;;;;1.67;1.67;;;;;21.11;44.74;98807.97;4838831;28;102538;-83
2022/05/16 09:55:03;;;;;;;;;2.33;2.33;;;;;21.12;44.75;98806.88;4838188;28;102574;-83
2022/05/16 09:57:32;;;;;;;;;3.00;2.00;;;;;21.12;44.53;98804.94;4860822;28;104099;-83
2022/05/16 10:00:24;;;;;;;;;2.00;2.00;;;;;21.11;44.75;98808.81;4839492;28;102698;-83
2022/05/16 10:02:56;;;;;;;;;1.67;1.67;;;;;21.13;44.62;98801.13;4859702;28;102914;-82
2022/05/16 10:05:31;;;;;;;;;2.00;2.00;;;;;21.13;44.87;98798.38;4859494;28;109558;-83
2022/05/16 10:08:04;;;;;;;;;2.00;2.00;;;;;21.14;44.67;98802.81;4837300;28;104074;-83
2022/05/16 10:10:34;;;;;;;;;2.33;2.33;;;;;21.14;44.86;98794.56;4858124;28;102647;-83
2022/05/16 10:13:02;;;;;;;;;2.67;2.00;;;;;21.14;44.68;98800.06;4857179;28;102336;-82
2022/05/16 10:15:29;;;;;;;;;1.67;1.67;;;;;21.15;44.97;98793.47;4856152;28;103166;-82
2022/05/16 10:17:57;;;;;;;;;1.00;1.00;;;;;21.16;45.04;98803.38;4857656;28;104516;-82
2022/05/16 10:20:35;;;;;;;;;2.00;2.00;;;;;21.17;44.63;98790.44;4860860;28;104930;-82
2022/05/16 10:23:06;;;;;;;;;1.67;1.67;;;;;21.17;44.72;98791.25;4824789;28;102366;-82
2022/05/16 10:25:41;;;;;;;;;2.00;2.00;;;;;21.19;44.99;98794.59;4847504;28;102897;-82
2022/05/16 10:28:11;;;;;;;;;1.00;1.00;;;;;21.19;44.67;98789.09;4841785;28;104201;-82
2022/05/16 10:33:24;;;;;;;;;2.00;2.00;;;;;21.20;44.69;98795.41;4849247;28;102250;-82
2022/05/16 10:36:20;;;;;;;;;1.67;1.67;;;;;21.20;45.05;98785.25;4840618;28;103058;-82
2022/05/16 10:39:16;;;;;;;;;1.67;1.67;;;;;21.22;44.68;98788.53;4856984;28;108700;-81
2022/05/16 10:42:05;;;;;;;;;1.67;0.67;;;;;21.21;44.75;98797.88;4854278;28;102007;-82
2022/05/16 10:44:53;;;;;;;;;2.67;1.67;;;;;21.22;44.52;98784.97;4841552;28;102194;-82
2022/05/16 10:47:31;;;;;;;;;3.00;3.00;;;;;21.23;44.95;98800.38;4860720;28;102516;-82
2022/05/16 10:50:13;;;;;;;;;2.67;2.00;;;;;21.23;44.74;98784.72;4855706;28;104043;-82
2022/05/16 10:52:44;;;;;;;;;2.00;1.33;;;;;21.24;44.60;98780.88;4827939;28;102125;-82
2022/05/16 10:55:11;;;;;;;;;2.00;1.00;;;;;21.25;44.38;98777.00;4838740;28;102535;-82
2022/05/16 10:57:44;;;;;;;;;1.67;1.00;;;;;21.25;44.44;98777.00;4860380;28;102172;-82
2022/05/16 11:00:39;;;;;;;;;2.33;2.33;;;;;21.26;44.52;98773.16;4860240;28;108988;-82
2022/05/16 11:04:03;;;;;;;;;1.67;1.67;;;;;21.26;44.91;98767.66;4833423;28;102283;-82
2022/05/16 11:06:45;;;;;;;;;0.67;0.67;;;;;21.28;44.54;98771.00;4856778;28;102221;-82
2022/05/16 11:09:34;;;;;;;;;2.67;2.67;;;;;21.29;44.67;98760.81;4854681;28;102373;-82
2022/05/16 11:12:14;;;;;;;;;1.33;1.33;;;;;21.28;44.72;98757.25;4851157;28;108754;-82
2022/05/16 11:14:59;;;;;;;;;1.67;1.00;;;;;21.28;44.46;98748.16;4857247;28;102488;-82
2022/05/16 11:17:34;;;;;;;;;2.00;2.00;;;;;21.29;44.61;98745.16;4844710;28;102477;-82
2022/05/16 11:20:30;;;;;;;;;1.67;1.67;;;;;21.31;44.54;98745.69;4858130;28;102087;-82
2022/05/16 11:23:02;;;;;;;;;2.00;2.00;;;;;21.32;44.68;98743.78;4853890;28;108665;-82
2022/05/16 11:25:54;;;;;;;;;1.67;1.67;;;;;21.33;44.69;98751.78;4837847;28;102621;-82
2022/05/16 11:29:17;;;;;;;;;1.67;1.67;;;;;21.35;44.53;98737.72;4839916;28;102167;-82
2022/05/16 11:31:33;;;;;;;;;1.67;1.67;;;;;21.36;44.39;98744.91;4851760;28;102735;-82
2022/05/16 11:34:00;;;;;;;;;2.00;2.00;;;;;21.36;44.52;98742.16;4817709;28;104272;-82
2022/05/16 11:36:45;;;;;;;;;1.33;1.33;;;;;21.37;44.59;98746.56;4843214;28;102282;-82
2022/05/16 11:39:23;;;;;;;;;1.00;1.00;;;;;21.38;44.42;98741.88;4822406;28;102501;-83
2022/05/16 11:42:27;;;;;;;;;1.00;1.00;;;;;21.39;44.50;98743.56;4824766;28;102197;-82
2022/05/16 11:45:02;;;;;;;;;1.00;1.00;;;;;21.39;44.69;98738.03;4851571;28;109105;-82
2022/05/16 11:47:57;;;;;;;;;1.67;1.67;;;;;21.40;44.46;98745.19;4856602;28;102591;-83
2022/05/16 11:51:03;;;;;;;;;1.67;1.67;;;;;21.42;44.31;98743.00;4852509;28;103076;-83
2022/05/16 11:53:44;;;;;;;;;1.00;1.00;;;;;21.44;44.72;98743.53;4839282;28;102280;-82
2022/05/16 12:02:21;;;;;;;;;0.67;0.67;;;;;21.46;44.80;98728.44;4852829;28;102314;-83
2022/05/16 12:04:50;;;;;;;;;1.67;1.67;;;;;21.46;44.20;98727.63;4858695;28;102413;-82
2022/05/16 12:07:42;;;;;;;;;1.00;1.00;;;;;21.48;44.15;98719.94;4855042;28;104108;-83
2022/05/16 12:10:15;;;;;;;;;3.00;2.00;;;;;21.50;44.59;98734.22;4862031;28;102129;-82
2022/05/16 12:12:44;;;;;;;;;2.00;2.00;;;;;21.49;44.71;98725.16;4860914;28;102308;-83
2022/05/16 12:15:17;;;;;;;;;2.00;2.00;;;;;21.52;44.56;98726.56;4861350;28;102480;-82
2022/05/16 12:17:56;;;;;;;;;0.67;0.67;;;;;21.54;44.22;98724.34;4860318;28;108942;-82
2022/05/16 12:20:42;;;;;;;;;0.67;0.67;;;;;21.53;44.40;98718.00;4858991;28;103052;-82
2022/05/16 12:23:11;;;;;;;;;2.00;2.00;;;;;21.55;44.13;98726.00;4857441;28;102368;-82
2022/05/16 12:25:40;;;;;;;;;2.00;2.00;;;;;21.56;44.71;98709.22;4858201;28;102289;-82